Alamance, North Carolina
Current Conditions -  °F | °C
As of 12:54 PM on Thursday 23 Oct 2014 (Local Time) from KBUY Reporting Station
Clear Clear  
Wind Chill: 18°   Ceiling: Unl
Heat Index: 18°   Visibility: 10mi
Dew Point:   Wind: 9mph
Humidity: 40%   Direction: 340°NNW
Pressure: 30.02"   Gusts: 18mph
Location:  36.04°N, 79.49°W
Report Text: KBUY 231654Z AUTO 34008G16KT 10SM CLR 18/04 A3002 RMK AO2 SLP164 T01830044
Loading
Personal Weather Stations






























Interactive Weather Map
Tropical Storm Tracking
New forecast layout! Learn more

10-Day Weather Forecast

Advertisements
Track Severe Weather on mobile